createdAt,value
2022-11-12T00:00:47.219Z,4.73
2022-11-12T00:04:48.805Z,4.17
2022-11-12T00:08:50.399Z,4.70
2022-11-12T00:12:53.834Z,4.57
2022-11-12T00:16:55.492Z,4.93
2022-11-12T00:20:57.056Z,4.70
2022-11-12T00:24:58.901Z,5.00
2022-11-12T00:29:01.911Z,5.77
2022-11-12T00:33:04.110Z,5.83
2022-11-12T00:37:05.956Z,5.47
2022-11-12T00:41:07.765Z,5.90
2022-11-12T00:45:11.019Z,6.00
2022-11-12T00:49:13.090Z,6.50
2022-11-12T00:53:14.653Z,5.80
2022-11-12T00:57:16.610Z,6.20
2022-11-12T01:01:20.092Z,6.30
2022-11-12T01:05:21.942Z,6.70
2022-11-12T01:09:23.471Z,6.03
2022-11-12T01:13:26.153Z,6.17
2022-11-12T01:17:29.307Z,6.40
2022-11-12T01:21:32.962Z,6.77
2022-11-12T01:25:37.743Z,7.00
2022-11-12T01:29:39.473Z,6.13
2022-11-12T01:33:44.572Z,6.57
2022-11-12T01:37:46.092Z,6.63
2022-11-12T01:41:47.678Z,6.70
2022-11-12T01:45:51.006Z,6.40
2022-11-12T01:49:58.390Z,6.90
2022-11-12T01:54:06.083Z,6.43
2022-11-12T01:58:10.598Z,7.27
2022-11-12T02:02:12.431Z,7.40
2022-11-12T02:06:17.355Z,7.00
2022-11-12T02:10:19.575Z,7.07
2022-11-12T02:14:21.703Z,7.30
2022-11-12T02:18:23.419Z,7.37
2022-11-12T02:22:26.609Z,7.83
2022-11-12T02:26:31.663Z,7.03
2022-11-12T02:30:34.351Z,7.03
2022-11-12T02:34:36.024Z,7.83
2022-11-12T02:38:38.898Z,6.77
2022-11-12T02:42:40.588Z,7.20
2022-11-12T02:46:42.163Z,7.40
2022-11-12T02:50:47.196Z,7.30
2022-11-12T02:54:50.105Z,7.47
2022-11-12T02:58:51.619Z,7.40
2022-11-12T03:02:53.149Z,7.67
2022-11-12T03:06:54.904Z,7.20
2022-11-12T03:10:58.008Z,7.57
2022-11-12T03:14:59.596Z,7.80
2022-11-12T03:19:01.255Z,7.47
2022-11-12T03:23:04.749Z,7.97
2022-11-12T03:27:07.810Z,8.00
2022-11-12T03:31:09.499Z,7.40
2022-11-12T03:35:11.001Z,7.27
2022-11-12T03:39:12.787Z,7.80
2022-11-12T03:43:15.665Z,7.43
2022-11-12T03:47:17.320Z,6.93
2022-11-12T03:51:18.843Z,7.20
2022-11-12T03:55:22.511Z,7.90
2022-11-12T03:59:25.523Z,7.90
2022-11-12T04:03:27.052Z,7.67
2022-11-12T04:07:28.709Z,8.30
2022-11-12T04:11:30.311Z,8.33
2022-11-12T04:15:33.219Z,7.63
2022-11-12T04:19:34.889Z,7.77
2022-11-12T04:23:36.572Z,7.43
2022-11-12T04:27:38.269Z,7.33
2022-11-12T04:31:41.161Z,6.60
2022-11-12T04:35:42.695Z,6.33
2022-11-12T04:39:44.413Z,7.00
2022-11-12T04:43:45.951Z,6.63
2022-11-12T04:47:48.935Z,6.63
2022-11-12T04:51:50.481Z,7.40
2022-11-12T04:55:52.950Z,7.20
2022-11-12T04:59:54.584Z,7.27
2022-11-12T05:03:57.448Z,6.87
2022-11-12T05:07:59.828Z,7.07
2022-11-12T05:12:01.832Z,7.43
2022-11-12T05:16:03.776Z,7.33
2022-11-12T05:20:08.094Z,7.23
2022-11-12T05:24:22.414Z,6.80
2022-11-12T05:28:32.126Z,6.30
2022-11-12T05:32:33.841Z,7.17
2022-11-12T05:36:36.867Z,6.40
2022-11-12T05:40:38.387Z,7.00
2022-11-12T05:44:40.065Z,6.77
2022-11-12T05:48:41.786Z,7.00
2022-11-12T05:52:45.263Z,7.20
2022-11-12T05:56:46.871Z,7.77
2022-11-12T06:00:48.447Z,7.40
2022-11-12T06:04:50.121Z,6.47
2022-11-12T06:08:52.968Z,6.80
